createdAt,value
2022-11-06T00:00:29.149Z,1010.68
2022-11-06T00:01:29.718Z,1010.66
2022-11-06T00:02:30.414Z,1010.69
2022-11-06T00:03:31.018Z,1010.70
2022-11-06T00:04:31.575Z,1010.70
2022-11-06T00:05:32.121Z,1010.70
2022-11-06T00:06:32.689Z,1010.69
2022-11-06T00:07:33.301Z,1010.66
2022-11-06T00:08:33.857Z,1010.67
2022-11-06T00:09:34.415Z,1010.71
2022-11-06T00:10:34.974Z,1010.69
2022-11-06T00:11:35.522Z,1010.63
2022-11-06T00:12:36.207Z,1010.64
2022-11-06T00:13:36.762Z,1010.60
2022-11-06T00:14:37.309Z,1010.60
2022-11-06T00:15:37.854Z,1010.55
2022-11-06T00:16:38.400Z,1010.61
2022-11-06T00:17:39.147Z,1010.68
2022-11-06T00:18:39.706Z,1010.71
2022-11-06T00:19:40.261Z,1010.72
2022-11-06T00:20:40.818Z,1010.68
2022-11-06T00:21:41.373Z,1010.62
2022-11-06T00:22:41.962Z,1010.59
2022-11-06T00:23:42.510Z,1010.56
2022-11-06T00:24:43.055Z,1010.55
2022-11-06T00:25:43.600Z,1010.61
2022-11-06T00:26:44.139Z,1010.62
2022-11-06T00:27:44.717Z,1010.64
2022-11-06T00:28:45.294Z,1010.61
2022-11-06T00:29:45.852Z,1010.52
2022-11-06T00:30:46.408Z,1010.39
2022-11-06T00:31:46.959Z,1010.26
2022-11-06T00:32:47.584Z,1010.20
2022-11-06T00:33:48.145Z,1010.16
2022-11-06T00:34:48.693Z,1010.19
2022-11-06T00:35:49.242Z,1010.19
2022-11-06T00:36:49.791Z,1010.14
2022-11-06T00:37:50.447Z,1010.16
2022-11-06T00:38:50.995Z,1010.15
2022-11-06T00:39:51.546Z,1010.13
2022-11-06T00:40:52.099Z,1010.12
2022-11-06T00:41:52.660Z,1010.14
2022-11-06T00:42:53.296Z,1010.21
2022-11-06T00:43:53.841Z,1010.26
2022-11-06T00:44:54.391Z,1010.22
2022-11-06T00:45:54.937Z,1010.17
2022-11-06T00:46:55.482Z,1010.13
2022-11-06T00:47:56.082Z,1010.12
2022-11-06T00:48:56.645Z,1010.12
2022-11-06T00:49:57.200Z,1010.10
2022-11-06T00:50:57.751Z,1010.08
2022-11-06T00:51:58.295Z,1010.07
2022-11-06T00:52:59.010Z,1010.03
2022-11-06T00:53:59.569Z,1009.98
2022-11-06T00:55:00.125Z,1009.91
2022-11-06T00:56:00.684Z,1009.83
2022-11-06T00:57:01.239Z,1009.82
2022-11-06T00:58:01.823Z,1009.90
2022-11-06T00:59:02.376Z,1009.97
2022-11-06T01:00:02.932Z,1009.99
2022-11-06T01:01:03.566Z,1009.96
2022-11-06T01:02:04.365Z,1009.91
2022-11-06T01:03:05.235Z,1009.85
2022-11-06T01:04:05.886Z,1009.78
2022-11-06T01:05:06.463Z,1009.74
2022-11-06T01:06:07.007Z,1009.70
2022-11-06T01:07:07.564Z,1009.70
2022-11-06T01:08:08.195Z,1009.71
2022-11-06T01:09:08.750Z,1009.71
2022-11-06T01:10:09.304Z,1009.69
2022-11-06T01:11:09.859Z,1009.65
2022-11-06T01:12:13.355Z,1009.61
2022-11-06T01:13:11.288Z,1009.59
2022-11-06T01:14:11.854Z,1009.63
2022-11-06T01:15:12.405Z,1009.67
2022-11-06T01:16:12.959Z,1009.68
2022-11-06T01:17:13.526Z,1009.64
2022-11-06T01:18:14.657Z,1009.59
2022-11-06T01:19:14.871Z,1009.58
2022-11-06T01:20:15.424Z,1009.59
2022-11-06T01:21:15.977Z,1009.58
2022-11-06T01:22:16.539Z,1009.55
2022-11-06T01:23:17.347Z,1009.55
2022-11-06T01:24:17.949Z,1009.56
2022-11-06T01:25:18.563Z,1009.61
2022-11-06T01:26:36.862Z,1009.67
2022-11-06T01:27:26.284Z,1009.72
2022-11-06T01:28:20.955Z,1009.74
2022-11-06T01:29:21.516Z,1009.71
2022-11-06T01:30:22.056Z,1009.65
2022-11-06T01:31:22.624Z,1009.62
2022-11-06T01:32:23.180Z,1009.62
2022-11-06T01:33:23.788Z,1009.64
2022-11-06T01:34:24.336Z,1009.68
2022-11-06T01:35:24.879Z,1009.71
2022-11-06T01:36:25.436Z,1009.72
2022-11-06T01:37:25.995Z,1009.68
2022-11-06T01:38:26.712Z,1009.63
2022-11-06T01:39:27.264Z,1009.59
2022-11-06T01:40:27.809Z,1009.58
2022-11-06T01:41:28.354Z,1009.63
2022-11-06T01:42:28.917Z,1009.64
2022-11-06T01:43:29.571Z,1009.61
2022-11-06T01:44:30.129Z,1009.59
2022-11-06T01:45:30.675Z,1009.55
2022-11-06T01:46:31.221Z,1009.50
2022-11-06T01:47:31.776Z,1009.42
2022-11-06T01:48:32.444Z,1009.38
2022-11-06T01:49:32.992Z,1009.37
2022-11-06T01:50:33.549Z,1009.41
2022-11-06T01:51:34.096Z,1009.47
2022-11-06T01:52:34.666Z,1009.46
2022-11-06T01:53:35.334Z,1009.41
2022-11-06T01:54:35.879Z,1009.32
2022-11-06T01:55:36.427Z,1009.23
2022-11-06T01:56:36.972Z,1009.21
2022-11-06T01:57:37.549Z,1009.20
2022-11-06T01:58:38.208Z,1009.15
2022-11-06T01:59:38.769Z,1009.12
2022-11-06T02:00:39.312Z,1009.13
2022-11-06T02:01:40.017Z,1009.18
2022-11-06T02:02:40.865Z,1009.21
2022-11-06T02:03:41.586Z,1009.24
2022-11-06T02:04:42.153Z,1009.23
2022-11-06T02:05:42.712Z,1009.19
2022-11-06T02:06:43.278Z,1009.12
2022-11-06T02:07:43.828Z,1009.11
2022-11-06T02:08:44.465Z,1009.16
2022-11-06T02:09:45.017Z,1009.20
2022-11-06T02:10:45.573Z,1009.25
2022-11-06T02:11:46.131Z,1009.28
2022-11-06T02:12:46.681Z,1009.27
2022-11-06T02:13:47.368Z,1009.24
2022-11-06T02:14:47.923Z,1009.19
2022-11-06T02:15:48.466Z,1009.14
2022-11-06T02:16:49.015Z,1009.09
2022-11-06T02:17:49.565Z,1009.05
2022-11-06T02:18:50.346Z,1009.03
2022-11-06T02:19:50.906Z,1009.02
2022-11-06T02:20:51.454Z,1008.99
2022-11-06T02:21:52.008Z,1008.97
2022-11-06T02:22:52.551Z,1009.01
2022-11-06T02:23:53.123Z,1009.14
2022-11-06T02:24:53.679Z,1009.22
2022-11-06T02:25:54.353Z,1009.30
2022-11-06T02:26:54.903Z,1009.31
2022-11-06T02:27:55.450Z,1009.29
2022-11-06T02:28:56.041Z,1009.27
2022-11-06T02:29:56.596Z,1009.25
2022-11-06T02:30:57.153Z,1009.26
2022-11-06T02:31:57.708Z,1009.29
2022-11-06T02:32:58.263Z,1009.32
2022-11-06T02:33:58.874Z,1009.33
2022-11-06T02:34:59.420Z,1009.33
2022-11-06T02:35:59.967Z,1009.30
2022-11-06T02:37:00.528Z,1009.29
2022-11-06T02:38:01.080Z,1009.34
2022-11-06T02:39:01.787Z,1009.37
2022-11-06T02:40:02.351Z,1009.33
2022-11-06T02:41:02.912Z,1009.28
2022-11-06T02:42:03.456Z,1009.27
2022-11-06T02:43:04.005Z,1009.29
2022-11-06T02:44:04.665Z,1009.32
2022-11-06T02:45:05.230Z,1009.33
2022-11-06T02:46:05.781Z,1009.29
2022-11-06T02:47:06.338Z,1009.33
2022-11-06T02:48:06.887Z,1009.41
2022-11-06T02:49:07.546Z,1009.47
2022-11-06T02:50:08.097Z,1009.47
2022-11-06T02:51:08.650Z,1009.45
2022-11-06T02:52:09.206Z,1009.43
2022-11-06T02:53:09.746Z,1009.43
2022-11-06T02:54:10.520Z,1009.48
2022-11-06T02:55:11.074Z,1009.52
2022-11-06T02:56:11.629Z,1009.55
2022-11-06T02:57:12.182Z,1009.58
2022-11-06T02:58:13.048Z,1009.61
2022-11-06T02:59:13.384Z,1009.62
2022-11-06T03:00:13.937Z,1009.63
2022-11-06T03:01:14.549Z,1009.61
2022-11-06T03:02:15.390Z,1009.58
2022-11-06T03:03:16.087Z,1009.54
2022-11-06T03:04:16.702Z,1009.52
2022-11-06T03:05:17.254Z,1009.51
2022-11-06T03:06:17.805Z,1009.51
2022-11-06T03:07:18.351Z,1009.50
2022-11-06T03:08:18.906Z,1009.49
2022-11-06T03:09:19.529Z,1009.49
2022-11-06T03:10:20.094Z,1009.48
2022-11-06T03:13:55.675Z,1009.60
2022-11-06T03:14:11.097Z,1009.67
2022-11-06T03:15:11.819Z,1009.66
2022-11-06T03:16:12.370Z,1009.59
2022-11-06T03:17:12.920Z,1009.56
2022-11-06T03:18:13.942Z,1009.61
2022-11-06T03:19:14.231Z,1009.68
2022-11-06T03:20:14.872Z,1009.71
2022-11-06T03:21:15.419Z,1009.75
2022-11-06T03:29:30.833Z,1009.43
2022-11-06T03:37:47.416Z,1009.49
2022-11-06T03:38:48.977Z,1009.46
2022-11-06T03:39:49.539Z,1009.46
2022-11-06T03:40:50.115Z,1009.47
2022-11-06T03:41:50.685Z,1009.49
2022-11-06T03:42:51.793Z,1009.51
2022-11-06T03:43:51.852Z,1009.49
2022-11-06T03:44:52.414Z,1009.45
2022-11-06T03:45:52.992Z,1009.42
2022-11-06T03:46:53.542Z,1009.41
2022-11-06T03:47:54.261Z,1009.47
2022-11-06T03:48:54.820Z,1009.58
2022-11-06T03:49:55.375Z,1009.69
2022-11-06T03:50:55.945Z,1009.75
2022-11-06T03:51:56.494Z,1009.72
2022-11-06T03:52:57.220Z,1009.72
2022-11-06T03:53:57.799Z,1009.72
2022-11-06T03:54:58.360Z,1009.69
2022-11-06T03:55:58.909Z,1009.66
2022-11-06T03:56:59.464Z,1009.64
2022-11-06T03:58:00.042Z,1009.63
2022-11-06T03:59:00.629Z,1009.65
2022-11-06T04:00:01.209Z,1009.72
2022-11-06T04:01:01.767Z,1009.80
2022-11-06T04:02:02.488Z,1009.77
2022-11-06T04:03:03.397Z,1009.64
2022-11-06T04:04:04.008Z,1009.55
2022-11-06T04:05:04.571Z,1009.56
2022-11-06T04:06:05.135Z,1009.60
2022-11-06T04:07:05.693Z,1009.70
2022-11-06T04:08:06.324Z,1009.65
2022-11-06T04:09:06.887Z,1009.43
2022-11-06T04:10:07.437Z,1009.29
2022-11-06T04:11:07.991Z,1009.34
2022-11-06T04:12:08.546Z,1009.48
2022-11-06T04:13:09.177Z,1009.59
2022-11-06T04:14:09.733Z,1009.68
2022-11-06T04:15:10.288Z,1009.80
2022-11-06T04:16:10.847Z,1009.95
2022-11-06T04:17:11.411Z,1009.95
2022-11-06T04:18:12.396Z,1009.88
2022-11-06T04:19:12.606Z,1009.86
2022-11-06T04:20:13.169Z,1009.82
2022-11-06T04:21:13.720Z,1009.84
2022-11-06T04:22:14.290Z,1009.87
2022-11-06T04:23:15.690Z,1009.93
2022-11-06T04:24:15.776Z,1009.94
2022-11-06T04:25:16.324Z,1009.84
2022-11-06T04:26:16.871Z,1009.74
2022-11-06T04:27:17.435Z,1009.72
2022-11-06T04:28:18.018Z,1009.79
2022-11-06T04:29:18.609Z,1009.90
2022-11-06T04:30:19.161Z,1010.01
2022-11-06T04:31:19.723Z,1010.00
2022-11-06T04:32:20.237Z,1009.97
2022-11-06T04:33:20.779Z,1009.91
2022-11-06T04:34:21.409Z,1009.82
2022-11-06T04:35:21.958Z,1010.08
2022-11-06T04:36:22.514Z,1010.26
2022-11-06T04:37:23.077Z,1010.12
2022-11-06T04:38:23.668Z,1010.14
2022-11-06T04:39:24.222Z,1010.59
2022-11-06T04:40:24.772Z,1010.49
2022-11-06T04:41:25.335Z,1010.45
2022-11-06T04:42:25.870Z,1010.30
2022-11-06T04:43:26.397Z,1010.39
2022-11-06T04:44:27.019Z,1010.53
2022-11-06T04:45:27.519Z,1010.64
2022-11-06T04:46:28.016Z,1010.69
2022-11-06T04:47:28.513Z,1010.88
2022-11-06T04:48:29.013Z,1011.04
2022-11-06T04:49:29.646Z,1011.17
2022-11-06T04:50:30.155Z,1011.19
2022-11-06T04:51:30.656Z,1011.21
2022-11-06T04:52:31.159Z,1011.15
2022-11-06T04:53:31.678Z,1011.12
2022-11-06T04:54:32.217Z,1010.96
2022-11-06T04:55:32.741Z,1011.24
2022-11-06T04:56:35.261Z,1011.26
2022-11-06T04:57:34.016Z,1011.67
2022-11-06T04:58:34.522Z,1011.30
2022-11-06T04:59:35.140Z,1011.36
2022-11-06T05:00:35.718Z,1011.52
2022-11-06T05:01:36.400Z,1011.52
2022-11-06T05:02:37.014Z,1011.81
2022-11-06T11:17:42.485Z,1008.48
2022-11-06T11:18:36.970Z,1008.48
2022-11-06T11:19:37.494Z,1008.22
2022-11-06T11:20:38.154Z,1008.70
2022-11-06T11:21:38.661Z,1008.29
2022-11-06T11:22:39.281Z,1008.22
2022-11-06T11:23:39.831Z,1008.34
2022-11-06T11:24:40.332Z,1008.25
2022-11-06T11:25:40.839Z,1008.26
2022-11-06T11:26:41.345Z,1008.23
2022-11-06T11:27:41.895Z,1008.14
2022-11-06T11:28:42.397Z,1008.14
2022-11-06T11:29:42.902Z,1008.02
2022-11-06T11:30:43.410Z,1008.23
2022-11-06T11:31:43.921Z,1008.16
2022-11-06T11:32:44.507Z,1008.21
2022-11-06T11:33:45.003Z,1008.05
2022-11-06T11:34:50.271Z,1007.95
2022-11-06T11:35:46.363Z,1008.17
2022-11-06T11:36:46.902Z,1008.16
2022-11-06T11:37:47.471Z,1008.25
2022-11-06T11:38:47.974Z,1008.24
2022-11-06T11:39:48.490Z,1008.19
2022-11-06T11:40:48.993Z,1008.19
2022-11-06T11:41:49.492Z,1008.00
2022-11-06T11:42:50.515Z,1007.98
2022-11-06T11:43:51.012Z,1008.11
2022-11-06T11:44:51.522Z,1008.06
2022-11-06T11:45:52.025Z,1008.13
2022-11-06T11:46:52.646Z,1008.26
2022-11-06T11:47:53.217Z,1008.20
2022-11-06T11:48:53.743Z,1008.26
2022-11-06T11:49:54.247Z,1008.38
2022-11-06T11:50:54.760Z,1008.48
2022-11-06T11:51:55.268Z,1008.42
2022-11-06T11:52:55.856Z,1008.48
2022-11-06T11:53:56.365Z,1008.50
2022-11-06T11:54:56.864Z,1008.43
2022-11-06T11:55:57.358Z,1008.45
2022-11-06T11:57:04.699Z,1008.46
2022-11-06T11:57:59.314Z,1008.57
2022-11-06T11:58:59.814Z,1008.56
2022-11-06T13:30:32.748Z,1008.68
2022-11-06T13:31:34.255Z,1008.64
2022-11-06T13:32:34.749Z,1008.65
2022-11-06T13:33:35.253Z,1008.65
2022-11-06T13:34:35.751Z,1008.66
2022-11-06T13:35:36.296Z,1008.64
2022-11-06T13:36:36.795Z,1008.65
2022-11-06T13:37:37.297Z,1008.68
2022-11-06T13:38:37.803Z,1008.63
2022-11-06T13:39:38.308Z,1008.64
2022-11-06T13:40:39.144Z,1008.63
2022-11-06T13:41:39.654Z,1008.69
2022-11-06T13:42:40.152Z,1008.55
2022-11-06T13:43:40.653Z,1008.51
2022-11-06T13:44:41.154Z,1008.49
2022-11-06T13:45:41.801Z,1008.48
2022-11-06T13:46:42.316Z,1008.44
2022-11-06T13:47:42.841Z,1008.44
2022-11-06T13:48:43.347Z,1008.44
2022-11-06T13:49:43.849Z,1008.48
2022-11-06T13:50:44.382Z,1008.48
2022-11-06T13:51:44.885Z,1008.51
2022-11-06T13:52:45.379Z,1008.54
2022-11-06T13:53:45.882Z,1008.53
2022-11-06T13:54:46.382Z,1008.63
2022-11-06T13:55:47.015Z,1008.63
2022-11-06T13:56:47.576Z,1008.65
2022-11-06T13:57:48.069Z,1008.59
2022-11-06T13:58:48.577Z,1008.65
2022-11-06T13:59:49.079Z,1008.65
2022-11-06T14:00:49.718Z,1008.65
2022-11-06T14:01:50.398Z,1008.66
2022-11-06T14:02:51.077Z,1008.69
2022-11-06T14:03:51.624Z,1008.77
2022-11-06T14:04:53.686Z,1008.71
2022-11-06T14:05:52.927Z,1008.77
2022-11-06T14:06:53.433Z,1008.73
2022-11-06T14:07:53.933Z,1008.76
2022-11-06T14:08:54.427Z,1008.75
2022-11-06T14:09:54.927Z,1008.73
2022-11-06T14:10:55.482Z,1008.70
2022-11-06T14:11:55.992Z,1008.67
2022-11-06T14:12:56.496Z,1008.68
2022-11-06T14:13:56.996Z,1008.72
2022-11-06T14:14:57.501Z,1008.73
2022-11-06T14:15:58.078Z,1008.70
2022-11-06T14:16:58.587Z,1008.74
2022-11-06T14:17:59.097Z,1008.74
2022-11-06T14:18:59.601Z,1008.75
2022-11-06T14:20:00.118Z,1008.75
2022-11-06T14:21:00.696Z,1008.76
2022-11-06T14:22:01.196Z,1008.78
2022-11-06T14:23:01.689Z,1008.78
2022-11-06T14:24:02.196Z,1008.80
2022-11-06T14:25:02.755Z,1008.80
2022-11-06T14:26:03.300Z,1008.79
2022-11-06T14:27:03.816Z,1008.79
2022-11-06T14:28:04.315Z,1008.79
2022-11-06T14:29:04.821Z,1008.82
2022-11-06T14:30:05.438Z,1008.84
2022-11-06T14:31:12.468Z,1008.86
2022-11-06T14:32:06.939Z,1008.88
2022-11-06T14:33:07.440Z,1008.87
2022-11-06T14:34:07.945Z,1008.85
2022-11-06T14:35:08.446Z,1008.82
2022-11-06T14:36:08.974Z,1008.83
2022-11-06T14:37:09.473Z,1008.82
2022-11-06T14:38:09.971Z,1008.82
2022-11-06T14:39:10.470Z,1008.84
2022-11-06T14:40:10.978Z,1008.86
2022-11-06T14:41:11.532Z,1008.82
2022-11-06T14:42:12.038Z,1008.80
2022-11-06T14:43:12.927Z,1008.77
2022-11-06T14:44:13.098Z,1008.75
2022-11-06T14:45:13.621Z,1008.74
2022-11-06T14:46:14.180Z,1008.71
2022-11-06T14:47:14.682Z,1008.67
2022-11-06T14:48:19.361Z,1008.69
2022-11-06T14:49:16.134Z,1008.70
2022-11-06T14:50:16.636Z,1008.71
2022-11-06T14:51:17.196Z,1008.70
2022-11-06T14:52:17.696Z,1008.70
2022-11-06T14:53:18.371Z,1008.72
2022-11-06T14:54:18.865Z,1008.75
2022-11-06T14:55:19.388Z,1008.75
2022-11-06T14:56:19.966Z,1008.79
2022-11-06T14:57:20.472Z,1008.78
2022-11-06T14:58:20.976Z,1008.80
2022-11-06T14:59:21.491Z,1008.83
2022-11-06T15:00:26.001Z,1008.83
2022-11-06T15:01:23.047Z,1008.84
2022-11-06T15:02:23.846Z,1008.86
2022-11-06T15:03:24.498Z,1008.85
2022-11-06T15:04:24.998Z,1008.87
2022-11-06T15:05:25.500Z,1008.87
2022-11-06T15:06:26.039Z,1008.90
2022-11-06T15:07:58.419Z,1008.93
2022-11-06T15:08:27.393Z,1008.93
2022-11-06T15:09:27.893Z,1008.92
2022-11-06T15:10:28.397Z,1008.94
2022-11-06T15:11:28.934Z,1008.97
2022-11-06T15:12:29.436Z,1009.03
2022-11-06T15:13:29.984Z,1009.08
2022-11-06T15:14:30.521Z,1009.12
2022-11-06T15:15:31.021Z,1009.10
2022-11-06T15:16:31.602Z,1009.10
2022-11-06T15:17:32.118Z,1009.08
2022-11-06T15:18:32.627Z,1009.06
2022-11-06T15:19:33.147Z,1009.00
2022-11-06T15:20:33.652Z,1008.97
2022-11-06T15:21:34.244Z,1008.96
2022-11-06T15:22:34.737Z,1009.00
2022-11-06T15:23:35.233Z,1009.03
2022-11-06T15:24:35.739Z,1009.02
2022-11-06T15:25:36.242Z,1009.04
2022-11-06T15:26:36.776Z,1009.05
2022-11-06T15:27:42.647Z,1009.08
2022-11-06T15:28:38.130Z,1009.08
2022-11-06T15:29:38.636Z,1009.11
2022-11-06T15:30:39.148Z,1009.08
2022-11-06T15:31:39.971Z,1009.11
2022-11-06T15:32:40.469Z,1009.12
2022-11-06T15:33:40.970Z,1009.13
2022-11-06T15:34:41.478Z,1009.15
2022-11-06T15:35:41.984Z,1009.20
2022-11-06T15:36:42.517Z,1009.24
2022-11-06T15:37:43.022Z,1009.28
2022-11-06T15:38:43.528Z,1009.29
2022-11-06T15:39:44.024Z,1009.32
2022-11-06T15:40:44.531Z,1009.31
2022-11-06T15:41:45.085Z,1009.31
2022-11-06T15:42:45.584Z,1009.32
2022-11-06T15:43:46.091Z,1009.35
2022-11-06T15:44:46.589Z,1009.37
2022-11-06T15:45:47.089Z,1009.38
2022-11-06T15:46:47.644Z,1009.42
2022-11-06T15:47:48.195Z,1009.45
2022-11-06T15:48:48.724Z,1009.50
2022-11-06T15:49:49.312Z,1009.54
2022-11-06T15:50:49.874Z,1009.56
2022-11-06T15:51:50.485Z,1009.57
2022-11-06T15:52:50.987Z,1009.56
2022-11-06T15:53:51.541Z,1009.58
2022-11-06T15:54:56.723Z,1009.57
2022-11-06T15:55:52.995Z,1009.56
2022-11-06T15:56:53.587Z,1009.57
2022-11-06T15:57:54.140Z,1009.57
2022-11-06T15:58:54.691Z,1009.59
2022-11-06T15:59:55.244Z,1009.60
2022-11-06T16:00:55.803Z,1009.63
2022-11-06T16:01:56.542Z,1009.65
2022-11-06T16:02:57.153Z,1009.66
2022-11-06T16:03:57.710Z,1009.66
2022-11-06T16:04:58.269Z,1009.66
2022-11-06T16:05:58.825Z,1009.67
2022-11-06T16:06:59.413Z,1009.67
2022-11-06T16:07:59.964Z,1009.67
2022-11-06T16:09:00.522Z,1009.67
2022-11-06T16:10:01.080Z,1009.66
2022-11-06T16:11:01.644Z,1009.66
2022-11-06T16:12:02.238Z,1009.67
2022-11-06T16:13:02.793Z,1009.65
2022-11-06T16:14:03.357Z,1009.64
2022-11-06T16:15:03.902Z,1009.63
2022-11-06T16:16:04.460Z,1009.61
2022-11-06T16:17:05.074Z,1009.60
2022-11-06T16:18:05.647Z,1009.59
2022-11-06T16:19:06.202Z,1009.60
2022-11-06T16:20:06.758Z,1009.63
2022-11-06T16:21:07.311Z,1009.67
2022-11-06T16:22:07.938Z,1009.71
2022-11-06T16:23:08.483Z,1009.76
2022-11-06T16:24:09.038Z,1009.79
2022-11-06T16:25:09.595Z,1009.81
2022-11-06T16:26:10.152Z,1009.82
2022-11-06T16:27:10.806Z,1009.83
2022-11-06T16:28:11.361Z,1009.84
2022-11-06T16:29:11.985Z,1009.86
2022-11-06T16:30:12.597Z,1009.88
2022-11-06T16:31:13.147Z,1009.92
2022-11-06T16:32:13.839Z,1009.93
2022-11-06T16:33:14.766Z,1009.93
2022-11-06T16:34:15.010Z,1009.90
2022-11-06T16:35:15.566Z,1009.89
2022-11-06T16:36:16.140Z,1009.88
2022-11-06T16:37:16.721Z,1009.88
2022-11-06T16:38:39.928Z,1009.89
2022-11-06T16:39:18.185Z,1009.91
2022-11-06T16:40:18.736Z,1009.93
2022-11-06T16:41:19.298Z,1009.93
2022-11-06T16:42:19.914Z,1009.94
2022-11-06T16:43:20.474Z,1009.92
2022-11-06T16:44:23.580Z,1009.92
2022-11-06T16:45:21.933Z,1009.94
2022-11-06T16:46:22.498Z,1009.98
2022-11-06T16:47:23.101Z,1010.04
2022-11-06T16:48:23.650Z,1010.09
2022-11-06T16:49:24.210Z,1010.12
2022-11-06T16:50:24.774Z,1010.15
2022-11-06T16:51:25.325Z,1010.19
2022-11-06T16:52:25.991Z,1010.19
2022-11-06T16:53:26.546Z,1010.22
2022-11-06T16:54:27.101Z,1010.25
2022-11-06T16:55:27.659Z,1010.28
2022-11-06T16:56:28.210Z,1010.32
2022-11-06T16:57:28.899Z,1010.31
2022-11-06T16:58:29.465Z,1010.32
2022-11-06T16:59:30.020Z,1010.33
2022-11-06T17:00:30.583Z,1010.34
2022-11-06T17:01:31.264Z,1010.36
2022-11-06T17:02:32.112Z,1010.38
2022-11-06T17:03:32.758Z,1010.36
2022-11-06T17:04:33.310Z,1010.37
2022-11-06T17:05:33.948Z,1010.37
2022-11-06T17:06:34.537Z,1010.38
2022-11-06T17:07:35.167Z,1010.37
2022-11-06T17:08:35.724Z,1010.39
2022-11-06T17:09:36.276Z,1010.40
2022-11-06T17:10:36.832Z,1010.42
2022-11-06T17:11:37.389Z,1010.43
2022-11-06T17:12:38.000Z,1010.45
2022-11-06T17:13:38.550Z,1010.46
2022-11-06T17:14:39.108Z,1010.47
2022-11-06T17:15:39.702Z,1010.47
2022-11-06T17:16:40.253Z,1010.46
2022-11-06T17:17:40.860Z,1010.47
2022-11-06T17:18:41.422Z,1010.48
2022-11-06T17:19:41.980Z,1010.48
2022-11-06T17:20:42.537Z,1010.47
2022-11-06T17:21:43.088Z,1010.48
2022-11-06T17:22:43.672Z,1010.46
2022-11-06T17:23:44.228Z,1010.47
2022-11-06T17:24:44.838Z,1010.49
2022-11-06T17:25:45.390Z,1010.52
2022-11-06T17:26:45.947Z,1010.54
2022-11-06T17:27:46.541Z,1010.54
2022-11-06T17:28:47.100Z,1010.54
2022-11-06T17:29:47.666Z,1010.51
2022-11-06T17:30:48.217Z,1010.50
2022-11-06T17:31:48.775Z,1010.46
2022-11-06T17:32:49.436Z,1010.44
2022-11-06T17:33:50.006Z,1010.41
2022-11-06T17:34:50.561Z,1010.39
2022-11-06T17:35:51.121Z,1010.36
2022-11-06T17:36:51.698Z,1010.36
2022-11-06T17:37:52.284Z,1010.35
2022-11-06T17:38:52.839Z,1010.35
2022-11-06T17:39:53.394Z,1010.36
2022-11-06T17:40:53.974Z,1010.39
2022-11-06T17:41:54.638Z,1010.39
2022-11-06T17:42:55.296Z,1010.40
2022-11-06T17:43:55.856Z,1010.41
2022-11-06T17:44:56.409Z,1010.40
2022-11-06T17:45:56.964Z,1010.38
2022-11-06T17:46:57.537Z,1010.39
2022-11-06T17:47:58.171Z,1010.39
2022-11-06T17:48:58.720Z,1010.40
2022-11-06T17:49:59.279Z,1010.39
2022-11-06T17:50:59.832Z,1010.38
2022-11-06T17:52:00.857Z,1010.35
2022-11-06T17:53:01.154Z,1010.34
2022-11-06T17:54:01.712Z,1010.34
2022-11-06T17:55:02.269Z,1010.36
2022-11-06T17:56:02.827Z,1010.35
2022-11-06T17:57:03.381Z,1010.35
2022-11-06T17:58:04.045Z,1010.35
2022-11-06T17:59:04.600Z,1010.35
2022-11-06T18:00:05.438Z,1010.34
2022-11-06T18:01:06.138Z,1010.32
2022-11-06T18:02:06.883Z,1010.31
2022-11-06T18:03:07.773Z,1010.30
2022-11-06T18:04:08.458Z,1010.31
2022-11-06T18:05:09.020Z,1010.35
2022-11-06T18:06:09.575Z,1010.39
2022-11-06T18:07:10.140Z,1010.42
2022-11-06T18:08:11.018Z,1010.45
2022-11-06T18:09:11.262Z,1010.50
2022-11-06T18:10:11.823Z,1010.55
2022-11-06T18:11:12.385Z,1010.59
2022-11-06T18:12:12.943Z,1010.62
2022-11-06T18:13:13.644Z,1010.66
2022-11-06T18:14:14.199Z,1010.67
2022-11-06T18:15:14.759Z,1010.68
2022-11-06T18:16:15.307Z,1010.68
2022-11-06T18:17:15.857Z,1010.69
2022-11-06T18:18:16.792Z,1010.68
2022-11-06T18:19:16.938Z,1010.68
2022-11-06T18:20:17.514Z,1010.68
2022-11-06T18:21:18.063Z,1010.69
2022-11-06T18:22:18.703Z,1010.69
2022-11-06T18:23:19.322Z,1010.68
2022-11-06T18:24:19.877Z,1010.66
2022-11-06T18:25:20.431Z,1010.66
2022-11-06T18:26:20.983Z,1010.65
2022-11-06T18:27:21.535Z,1010.66
2022-11-06T18:28:22.118Z,1010.68
2022-11-06T18:29:22.674Z,1010.70
2022-11-06T18:30:23.229Z,1010.70
2022-11-06T18:31:23.791Z,1010.71
2022-11-06T18:32:24.341Z,1010.69
2022-11-06T18:33:25.006Z,1010.67
2022-11-06T18:34:25.562Z,1010.64
2022-11-06T18:35:26.121Z,1010.61
2022-11-06T18:36:26.675Z,1010.58
2022-11-06T18:37:27.224Z,1010.57
2022-11-06T18:38:27.808Z,1010.57
2022-11-06T18:39:28.360Z,1010.54
2022-11-06T18:40:28.922Z,1010.53
2022-11-06T18:41:29.475Z,1010.51
2022-11-06T18:42:30.041Z,1010.51
2022-11-06T18:43:30.660Z,1010.53
2022-11-06T18:44:31.230Z,1010.57
2022-11-06T18:45:31.797Z,1010.63
2022-11-06T18:46:32.352Z,1010.66
2022-11-06T18:47:32.914Z,1010.69
2022-11-06T18:48:33.642Z,1010.69
2022-11-06T18:49:34.200Z,1010.66
2022-11-06T18:50:34.752Z,1010.65
2022-11-06T18:51:36.362Z,1010.62
2022-11-06T18:52:56.297Z,1010.63
2022-11-06T18:53:36.991Z,1010.64
2022-11-06T18:54:37.553Z,1010.63
2022-11-06T18:55:38.102Z,1010.65
2022-11-06T18:56:38.669Z,1010.62
2022-11-06T18:57:39.216Z,1010.63
2022-11-06T18:58:39.880Z,1010.61
2022-11-06T18:59:40.435Z,1010.63
2022-11-06T19:00:40.993Z,1010.69
2022-11-06T19:01:41.631Z,1010.70
2022-11-06T19:02:42.462Z,1010.71
2022-11-06T19:03:43.145Z,1010.73
2022-11-06T19:04:43.779Z,1010.72
2022-11-06T19:05:44.366Z,1010.72
2022-11-06T19:06:45.261Z,1010.71
2022-11-06T19:07:51.179Z,1010.72
2022-11-06T19:08:46.770Z,1010.71
2022-11-06T19:09:47.321Z,1010.73
2022-11-06T19:10:47.875Z,1010.72
2022-11-06T19:11:48.420Z,1010.72
2022-11-06T19:12:48.966Z,1010.74
2022-11-06T19:13:49.577Z,1010.74
2022-11-06T19:14:50.133Z,1010.73
2022-11-06T19:15:50.680Z,1010.75
2022-11-06T19:16:51.233Z,1010.75
2022-11-06T19:17:51.789Z,1010.80
2022-11-06T19:19:53.288Z,1010.79
2022-11-06T19:20:53.844Z,1010.82
2022-11-06T19:21:54.396Z,1010.80
2022-11-06T19:22:54.955Z,1010.80
2022-11-06T19:24:00.268Z,1010.74
2022-11-06T19:24:56.487Z,1010.72
2022-11-06T19:26:17.403Z,1010.73
2022-11-06T19:26:57.951Z,1010.69
2022-11-06T19:27:58.508Z,1010.69
2022-11-06T19:28:59.094Z,1010.72
2022-11-06T19:29:59.651Z,1010.73
2022-11-06T19:31:00.216Z,1010.76
2022-11-06T19:32:00.771Z,1010.78
2022-11-06T19:33:01.334Z,1010.77
2022-11-06T19:34:02.031Z,1010.77
2022-11-06T19:35:02.621Z,1010.77
2022-11-06T19:36:03.176Z,1010.80
2022-11-06T19:37:03.733Z,1010.82
2022-11-06T19:38:04.287Z,1010.85
2022-11-06T19:39:04.890Z,1010.89
2022-11-06T19:40:06.325Z,1010.93
2022-11-06T19:41:06.079Z,1011.00
2022-11-06T19:42:06.644Z,1011.05
2022-11-06T19:43:07.203Z,1011.03
2022-11-06T19:44:07.830Z,1011.01
2022-11-06T19:45:08.388Z,1010.98
2022-11-06T19:46:08.946Z,1010.96
2022-11-06T19:47:09.506Z,1010.94
2022-11-06T19:48:10.066Z,1010.94
2022-11-06T19:49:10.716Z,1010.95
2022-11-06T19:50:11.282Z,1010.96
2022-11-06T19:51:11.844Z,1010.98
2022-11-06T19:52:41.673Z,1010.97
2022-11-06T19:53:13.608Z,1010.91
2022-11-06T19:54:13.998Z,1010.86
2022-11-06T19:55:25.732Z,1010.84
2022-11-06T19:56:15.472Z,1010.86
2022-11-06T19:57:27.164Z,1010.88
2022-11-06T19:58:16.944Z,1010.91
2022-11-06T19:59:17.529Z,1010.95
2022-11-06T20:00:18.085Z,1011.00
2022-11-06T20:01:18.942Z,1011.02
2022-11-06T20:02:19.771Z,1011.04
2022-11-06T20:03:20.446Z,1011.03
2022-11-06T20:04:21.059Z,1011.04
2022-11-06T20:05:21.616Z,1011.05
2022-11-06T20:06:22.169Z,1011.03
2022-11-06T20:07:22.725Z,1011.05
2022-11-06T20:08:23.282Z,1011.06
2022-11-06T20:09:23.906Z,1011.07
2022-11-06T20:10:24.451Z,1011.08
2022-11-06T20:11:24.998Z,1011.05
2022-11-06T20:12:25.555Z,1011.05
2022-11-06T20:13:26.118Z,1011.02
2022-11-06T20:14:26.724Z,1011.00